sensor_id;sensor_type;location;lat;lon;timestamp;temperature;humidity
7842;DHT22;3966;51.052;13.820;2023-01-10T00:02:21;7.10;99.90
7842;DHT22;3966;51.052;13.820;2023-01-10T00:04:47;7.20;99.90
7842;DHT22;3966;51.052;13.820;2023-01-10T00:07:12;7.20;99.90
7842;DHT22;3966;51.052;13.820;2023-01-10T00:09:38;7.20;99.90
7842;DHT22;3966;51.052;13.820;2023-01-10T00:12:04;7.20;99.90
7842;DHT22;3966;51.052;13.820;2023-01-10T00:14:48;7.20;99.90
7842;DHT22;3966;51.052;13.820;2023-01-10T00:17:13;7.20;99.90
7842;DHT22;3966;51.052;13.820;2023-01-10T00:19:39;7.20;99.90
7842;DHT22;3966;51.052;13.820;2023-01-10T00:22:04;7.20;99.90
7842;DHT22;3966;51.052;13.820;2023-01-10T00:24:31;7.20;99.90
7842;DHT22;3966;51.052;13.820;2023-01-10T00:26:57;7.10;99.90
7842;DHT22;3966;51.052;13.820;2023-01-10T00:29:28;7.10;99.90
7842;DHT22;3966;51.052;13.820;2023-01-10T00:31:55;7.10;99.90
7842;DHT22;3966;51.052;13.820;2023-01-10T00:34:22;7.10;99.90
7842;DHT22;3966;51.052;13.820;2023-01-10T00:36:47;7.00;99.90
7842;DHT22;3966;51.052;13.820;2023-01-10T00:39:14;7.00;99.90
7842;DHT22;3966;51.052;13.820;2023-01-10T00:41:40;7.00;99.90
7842;DHT22;3966;51.052;13.820;2023-01-10T00:44:25;7.00;99.90
7842;DHT22;3966;51.052;13.820;2023-01-10T00:46:51;7.00;99.90
7842;DHT22;3966;51.052;13.820;2023-01-10T00:49:17;7.00;99.90
7842;DHT22;3966;51.052;13.820;2023-01-10T00:51:44;7.10;99.90
7842;DHT22;3966;51.052;13.820;2023-01-10T00:54:10;7.10;99.90
7842;DHT22;3966;51.052;13.820;2023-01-10T00:56:36;7.10;99.90
7842;DHT22;3966;51.052;13.820;2023-01-10T00:59:02;7.10;99.90
7842;DHT22;3966;51.052;13.820;2023-01-10T01:01:28;7.00;99.90
7842;DHT22;3966;51.052;13.820;2023-01-10T01:03:54;7.00;99.90
7842;DHT22;3966;51.052;13.820;2023-01-10T01:06:19;7.00;99.90
7842;DHT22;3966;51.052;13.820;2023-01-10T01:08:45;7.00;99.90
7842;DHT22;3966;51.052;13.820;2023-01-10T01:11:11;7.00;99.90
7842;DHT22;3966;51.052;13.820;2023-01-10T01:13:36;7.00;99.90
7842;DHT22;3966;51.052;13.820;2023-01-10T01:16:02;7.00;99.90
7842;DHT22;3966;51.052;13.820;2023-01-10T01:18:28;7.00;99.90
7842;DHT22;3966;51.052;13.820;2023-01-10T01:20:55;7.00;99.90
7842;DHT22;3966;51.052;13.820;2023-01-10T01:23:22;7.00;99.90
7842;DHT22;3966;51.052;13.820;2023-01-10T01:25:52;7.00;99.90
7842;DHT22;3966;51.052;13.820;2023-01-10T01:28:19;7.00;99.90
7842;DHT22;3966;51.052;13.820;2023-01-10T01:30:46;7.00;99.90
7842;DHT22;3966;51.052;13.820;2023-01-10T01:33:12;7.00;99.90
7842;DHT22;3966;51.052;13.820;2023-01-10T01:35:44;7.00;99.90
7842;DHT22;3966;51.052;13.820;2023-01-10T01:38:11;7.00;99.90
7842;DHT22;3966;51.052;13.820;2023-01-10T01:40:37;6.90;99.90
7842;DHT22;3966;51.052;13.820;2023-01-10T01:43:04;6.90;99.90
7842;DHT22;3966;51.052;13.820;2023-01-10T01:45:34;6.90;99.90
7842;DHT22;3966;51.052;13.820;2023-01-10T01:48:22;6.90;99.90
7842;DHT22;3966;51.052;13.820;2023-01-10T01:53:43;6.90;99.90
7842;DHT22;3966;51.052;13.820;2023-01-10T01:56:41;6.90;99.90
7842;DHT22;3966;51.052;13.820;2023-01-10T01:59:23;6.90;99.90
7842;DHT22;3966;51.052;13.820;2023-01-10T02:01:54;6.90;99.90
7842;DHT22;3966;51.052;13.820;2023-01-10T02:04:25;6.90;99.90
7842;DHT22;3966;51.052;13.820;2023-01-10T02:06:53;6.80;99.90
7842;DHT22;3966;51.052;13.820;2023-01-10T02:09:44;6.80;99.90
7842;DHT22;3966;51.052;13.820;2023-01-10T02:12:11;6.80;99.90
7842;DHT22;3966;51.052;13.820;2023-01-10T02:14:39;6.90;99.90
7842;DHT22;3966;51.052;13.820;2023-01-10T02:17:09;6.80;99.90
7842;DHT22;3966;51.052;13.820;2023-01-10T02:19:51;6.80;99.90
7842;DHT22;3966;51.052;13.820;2023-01-10T02:22:44;6.80;99.90
7842;DHT22;3966;51.052;13.820;2023-01-10T02:39:11;6.70;99.90
7842;DHT22;3966;51.052;13.820;2023-01-10T02:41:50;6.80;99.90
7842;DHT22;3966;51.052;13.820;2023-01-10T02:46:52;6.70;99.90
7842;DHT22;3966;51.052;13.820;2023-01-10T02:49:17;6.70;99.90
7842;DHT22;3966;51.052;13.820;2023-01-10T02:51:43;6.70;99.90
7842;DHT22;3966;51.052;13.820;2023-01-10T02:54:18;6.70;99.90
7842;DHT22;3966;51.052;13.820;2023-01-10T03:10:50;6.70;99.90
7842;DHT22;3966;51.052;13.820;2023-01-10T03:13:25;6.70;99.90
7842;DHT22;3966;51.052;13.820;2023-01-10T03:15:51;6.70;99.90
7842;DHT22;3966;51.052;13.820;2023-01-10T03:18:26;6.70;99.90
7842;DHT22;3966;51.052;13.820;2023-01-10T03:20:54;6.70;99.90
7842;DHT22;3966;51.052;13.820;2023-01-10T03:23:23;6.70;99.90
7842;DHT22;3966;51.052;13.820;2023-01-10T03:25:51;6.60;99.90
7842;DHT22;3966;51.052;13.820;2023-01-10T03:28:31;6.60;99.90
7842;DHT22;3966;51.052;13.820;2023-01-10T03:31:01;6.50;99.90
7842;DHT22;3966;51.052;13.820;2023-01-10T03:33:30;6.50;99.90
7842;DHT22;3966;51.052;13.820;2023-01-10T03:43:46;6.50;99.90
7842;DHT22;3966;51.052;13.820;2023-01-10T03:49:12;6.50;99.90
7842;DHT22;3966;51.052;13.820;2023-01-10T03:51:40;6.50;99.90
7842;DHT22;3966;51.052;13.820;2023-01-10T03:54:06;6.50;99.90
7842;DHT22;3966;51.052;13.820;2023-01-10T03:56:46;6.50;99.90
7842;DHT22;3966;51.052;13.820;2023-01-10T03:59:11;6.50;99.90
7842;DHT22;3966;51.052;13.820;2023-01-10T04:01:37;6.60;99.90
7842;DHT22;3966;51.052;13.820;2023-01-10T04:04:03;6.50;99.90
7842;DHT22;3966;51.052;13.820;2023-01-10T04:06:29;6.50;99.90
7842;DHT22;3966;51.052;13.820;2023-01-10T04:08:55;6.50;99.90
7842;DHT22;3966;51.052;13.820;2023-01-10T04:11:20;6.50;99.90
7842;DHT22;3966;51.052;13.820;2023-01-10T04:13:46;6.50;99.90
7842;DHT22;3966;51.052;13.820;2023-01-10T04:16:13;6.40;99.90
7842;DHT22;3966;51.052;13.820;2023-01-10T04:18:38;6.40;99.90
7842;DHT22;3966;51.052;13.820;2023-01-10T04:21:04;6.50;99.90
7842;DHT22;3966;51.052;13.820;2023-01-10T04:23:31;6.50;99.90
7842;DHT22;3966;51.052;13.820;2023-01-10T04:25:56;6.50;99.90
7842;DHT22;3966;51.052;13.820;2023-01-10T04:28:22;6.50;99.90
7842;DHT22;3966;51.052;13.820;2023-01-10T04:30:48;6.50;99.90
7842;DHT22;3966;51.052;13.820;2023-01-10T04:33:13;6.60;99.90
7842;DHT22;3966;51.052;13.820;2023-01-10T04:35:39;6.50;99.90
7842;DHT22;3966;51.052;13.820;2023-01-10T04:38:05;6.60;99.90
7842;DHT22;3966;51.052;13.820;2023-01-10T04:40:30;6.50;99.90
7842;DHT22;3966;51.052;13.820;2023-01-10T04:42:56;6.50;99.90
7842;DHT22;3966;51.052;13.820;2023-01-10T04:45:21;6.60;99.90
7842;DHT22;3966;51.052;13.820;2023-01-10T04:47:50;6.60;99.90
7842;DHT22;3966;51.052;13.820;2023-01-10T04:50:16;6.60;99.90
7842;DHT22;3966;51.052;13.820;2023-01-10T04:52:42;6.60;99.90
7842;DHT22;3966;51.052;13.820;2023-01-10T04:55:08;6.60;99.90
7842;DHT22;3966;51.052;13.820;2023-01-10T04:57:34;6.60;99.90
7842;DHT22;3966;51.052;13.820;2023-01-10T05:00:00;6.70;99.90
7842;DHT22;3966;51.052;13.820;2023-01-10T05:02:25;6.60;99.90
7842;DHT22;3966;51.052;13.820;2023-01-10T05:04:51;6.60;99.90
7842;DHT22;3966;51.052;13.820;2023-01-10T05:07:17;6.60;99.90
7842;DHT22;3966;51.052;13.820;2023-01-10T05:09:42;6.60;99.90
7842;DHT22;3966;51.052;13.820;2023-01-10T05:12:08;6.60;99.90
7842;DHT22;3966;51.052;13.820;2023-01-10T05:14:34;6.70;99.90
7842;DHT22;3966;51.052;13.820;2023-01-10T05:16:59;6.60;99.90
7842;DHT22;3966;51.052;13.820;2023-01-10T05:19:25;6.60;99.90
7842;DHT22;3966;51.052;13.820;2023-01-10T05:21:50;6.70;99.90
7842;DHT22;3966;51.052;13.820;2023-01-10T05:24:17;6.70;99.90
7842;DHT22;3966;51.052;13.820;2023-01-10T05:26:42;6.70;99.90
7842;DHT22;3966;51.052;13.820;2023-01-10T05:29:11;6.60;99.90
7842;DHT22;3966;51.052;13.820;2023-01-10T05:31:38;6.60;99.90
7842;DHT22;3966;51.052;13.820;2023-01-10T05:34:04;6.60;99.90
7842;DHT22;3966;51.052;13.820;2023-01-10T05:36:30;6.60;99.90
7842;DHT22;3966;51.052;13.820;2023-01-10T05:38:56;6.60;99.90
7842;DHT22;3966;51.052;13.820;2023-01-10T05:41:21;6.60;99.90
7842;DHT22;3966;51.052;13.820;2023-01-10T05:43:48;6.60;99.90
7842;DHT22;3966;51.052;13.820;2023-01-10T05:46:14;6.60;99.90
7842;DHT22;3966;51.052;13.820;2023-01-10T05:48:40;6.60;99.90
7842;DHT22;3966;51.052;13.820;2023-01-10T05:51:06;6.60;99.90
7842;DHT22;3966;51.052;13.820;2023-01-10T05:53:32;6.60;99.90
7842;DHT22;3966;51.052;13.820;2023-01-10T05:56:00;6.60;99.90
7842;DHT22;3966;51.052;13.820;2023-01-10T05:58:27;6.60;99.90
7842;DHT22;3966;51.052;13.820;2023-01-10T06:00:54;6.60;99.90
7842;DHT22;3966;51.052;13.820;2023-01-10T06:03:20;6.60;99.90
7842;DHT22;3966;51.052;13.820;2023-01-10T06:05:45;6.50;99.90
7842;DHT22;3966;51.052;13.820;2023-01-10T06:08:11;6.60;99.90
7842;DHT22;3966;51.052;13.820;2023-01-10T06:10:37;6.60;99.90
7842;DHT22;3966;51.052;13.820;2023-01-10T06:13:02;6.50;99.90
7842;DHT22;3966;51.052;13.820;2023-01-10T06:15:30;6.60;99.90
7842;DHT22;3966;51.052;13.820;2023-01-10T06:17:55;6.60;99.90
7842;DHT22;3966;51.052;13.820;2023-01-10T06:20:21;6.60;99.90
7842;DHT22;3966;51.052;13.820;2023-01-10T06:22:46;6.60;99.90
7842;DHT22;3966;51.052;13.820;2023-01-10T06:25:12;6.60;99.90
7842;DHT22;3966;51.052;13.820;2023-01-10T06:27:42;6.60;99.90
7842;DHT22;3966;51.052;13.820;2023-01-10T06:30:09;6.60;99.90
7842;DHT22;3966;51.052;13.820;2023-01-10T06:32:36;6.60;99.90
7842;DHT22;3966;51.052;13.820;2023-01-10T06:35:02;6.60;99.90
7842;DHT22;3966;51.052;13.820;2023-01-10T06:37:28;6.60;99.90
7842;DHT22;3966;51.052;13.820;2023-01-10T06:39:54;6.60;99.90
7842;DHT22;3966;51.052;13.820;2023-01-10T06:42:19;6.70;99.90
7842;DHT22;3966;51.052;13.820;2023-01-10T06:44:45;6.70;99.90
7842;DHT22;3966;51.052;13.820;2023-01-10T06:47:10;6.70;99.90
7842;DHT22;3966;51.052;13.820;2023-01-10T06:49:36;6.70;99.90
7842;DHT22;3966;51.052;13.820;2023-01-10T06:52:02;6.70;99.90
7842;DHT22;3966;51.052;13.820;2023-01-10T06:54:27;6.70;99.90
7842;DHT22;3966;51.052;13.820;2023-01-10T06:56:53;6.60;99.90
7842;DHT22;3966;51.052;13.820;2023-01-10T06:59:18;6.60;99.90
7842;DHT22;3966;51.052;13.820;2023-01-10T07:01:44;6.60;99.90
7842;DHT22;3966;51.052;13.820;2023-01-10T07:04:10;6.60;99.90
7842;DHT22;3966;51.052;13.820;2023-01-10T07:06:39;6.60;99.90
7842;DHT22;3966;51.052;13.820;2023-01-10T07:09:06;6.50;99.90
7842;DHT22;3966;51.052;13.820;2023-01-10T07:11:33;6.50;99.90
7842;DHT22;3966;51.052;13.820;2023-01-10T07:14:00;6.50;99.90
7842;DHT22;3966;51.052;13.820;2023-01-10T07:16:26;6.60;99.90
7842;DHT22;3966;51.052;13.820;2023-01-10T07:18:51;6.60;99.90
7842;DHT22;3966;51.052;13.820;2023-01-10T07:21:17;6.60;99.90
7842;DHT22;3966;51.052;13.820;2023-01-10T07:23:49;6.60;99.90
7842;DHT22;3966;51.052;13.820;2023-01-10T07:26:15;6.60;99.90
7842;DHT22;3966;51.052;13.820;2023-01-10T07:28:47;6.50;99.90
7842;DHT22;3966;51.052;13.820;2023-01-10T07:31:16;6.40;99.90
7842;DHT22;3966;51.052;13.820;2023-01-10T07:33:42;6.50;99.90
7842;DHT22;3966;51.052;13.820;2023-01-10T07:36:08;6.50;99.90
7842;DHT22;3966;51.052;13.820;2023-01-10T07:38:34;6.40;99.90
7842;DHT22;3966;51.052;13.820;2023-01-10T07:41:02;6.50;99.90
7842;DHT22;3966;51.052;13.820;2023-01-10T07:43:29;6.60;99.90
7842;DHT22;3966;51.052;13.820;2023-01-10T07:45:57;6.60;99.90
7842;DHT22;3966;51.052;13.820;2023-01-10T07:48:23;6.50;99.90
7842;DHT22;3966;51.052;13.820;2023-01-10T07:50:49;6.50;99.90
7842;DHT22;3966;51.052;13.820;2023-01-10T07:53:14;6.40;99.90
7842;DHT22;3966;51.052;13.820;2023-01-10T07:55:40;6.40;99.90
7842;DHT22;3966;51.052;13.820;2023-01-10T07:58:07;6.50;99.90
7842;DHT22;3966;51.052;13.820;2023-01-10T08:00:34;6.40;99.90
7842;DHT22;3966;51.052;13.820;2023-01-10T08:03:00;6.40;99.90
7842;DHT22;3966;51.052;13.820;2023-01-10T08:05:25;6.40;99.90
7842;DHT22;3966;51.052;13.820;2023-01-10T08:07:51;6.40;99.90
7842;DHT22;3966;51.052;13.820;2023-01-10T08:10:17;6.40;99.90
7842;DHT22;3966;51.052;13.820;2023-01-10T08:12:43;6.50;99.90
7842;DHT22;3966;51.052;13.820;2023-01-10T08:15:10;6.40;99.90
7842;DHT22;3966;51.052;13.820;2023-01-10T08:17:36;6.50;99.90
7842;DHT22;3966;51.052;13.820;2023-01-10T08:20:01;6.50;99.90
7842;DHT22;3966;51.052;13.820;2023-01-10T08:22:27;6.40;99.90
7842;DHT22;3966;51.052;13.820;2023-01-10T08:24:53;6.40;99.90
7842;DHT22;3966;51.052;13.820;2023-01-10T08:27:19;6.50;99.90
7842;DHT22;3966;51.052;13.820;2023-01-10T08:29:44;6.40;99.90
7842;DHT22;3966;51.052;13.820;2023-01-10T08:32:11;6.50;99.90
7842;DHT22;3966;51.052;13.820;2023-01-10T08:34:36;6.60;99.90
7842;DHT22;3966;51.052;13.820;2023-01-10T08:37:02;6.60;99.90
7842;DHT22;3966;51.052;13.820;2023-01-10T08:39:29;6.60;99.90
7842;DHT22;3966;51.052;13.820;2023-01-10T08:41:59;6.50;99.90
7842;DHT22;3966;51.052;13.820;2023-01-10T08:44:25;6.50;99.90
7842;DHT22;3966;51.052;13.820;2023-01-10T08:46:51;6.40;99.90
7842;DHT22;3966;51.052;13.820;2023-01-10T08:49:17;6.40;99.90
7842;DHT22;3966;51.052;13.820;2023-01-10T08:51:42;6.50;99.90
7842;DHT22;3966;51.052;13.820;2023-01-10T08:54:09;6.50;99.90
7842;DHT22;3966;51.052;13.820;2023-01-10T08:56:35;6.60;99.90
7842;DHT22;3966;51.052;13.820;2023-01-10T08:59:02;6.70;99.90
7842;DHT22;3966;51.052;13.820;2023-01-10T09:01:27;6.60;99.90
7842;DHT22;3966;51.052;13.820;2023-01-10T09:03:53;6.70;99.90
7842;DHT22;3966;51.052;13.820;2023-01-10T09:06:18;6.70;99.90
7842;DHT22;3966;51.052;13.820;2023-01-10T09:08:44;6.60;99.90
7842;DHT22;3966;51.052;13.820;2023-01-10T09:11:10;6.60;99.90
7842;DHT22;3966;51.052;13.820;2023-01-10T09:13:35;6.60;99.90
7842;DHT22;3966;51.052;13.820;2023-01-10T09:16:01;6.60;99.90
7842;DHT22;3966;51.052;13.820;2023-01-10T09:18:27;6.70;99.90
7842;DHT22;3966;51.052;13.820;2023-01-10T09:20:53;6.70;99.90
7842;DHT22;3966;51.052;13.820;2023-01-10T09:23:20;6.70;99.90
7842;DHT22;3966;51.052;13.820;2023-01-10T09:25:47;6.80;99.90
7842;DHT22;3966;51.052;13.820;2023-01-10T09:28:13;6.70;99.90
7842;DHT22;3966;51.052;13.820;2023-01-10T09:30:39;6.70;99.90
7842;DHT22;3966;51.052;13.820;2023-01-10T09:33:05;6.80;99.90
7842;DHT22;3966;51.052;13.820;2023-01-10T09:35:33;6.80;99.90
7842;DHT22;3966;51.052;13.820;2023-01-10T09:38:00;6.80;99.90
7842;DHT22;3966;51.052;13.820;2023-01-10T09:49:18;6.70;99.90
7842;DHT22;3966;51.052;13.820;2023-01-10T09:51:49;6.50;99.90
7842;DHT22;3966;51.052;13.820;2023-01-10T09:54:32;6.50;99.90
7842;DHT22;3966;51.052;13.820;2023-01-10T09:57:01;6.30;99.90
7842;DHT22;3966;51.052;13.820;2023-01-10T09:59:38;6.40;99.90
7842;DHT22;3966;51.052;13.820;2023-01-10T10:02:35;6.40;99.90
7842;DHT22;3966;51.052;13.820;2023-01-10T10:05:31;6.40;99.90
7842;DHT22;3966;51.052;13.820;2023-01-10T10:07:59;6.40;99.90
7842;DHT22;3966;51.052;13.820;2023-01-10T10:10:40;6.40;99.90
7842;DHT22;3966;51.052;13.820;2023-01-10T10:13:33;6.30;99.90
7842;DHT22;3966;51.052;13.820;2023-01-10T10:16:23;6.30;99.90
7842;DHT22;3966;51.052;13.820;2023-01-10T10:21:39;6.40;99.90
7842;DHT22;3966;51.052;13.820;2023-01-10T10:26:57;6.50;99.90
7842;DHT22;3966;51.052;13.820;2023-01-10T10:29:34;6.50;99.90
7842;DHT22;3966;51.052;13.820;2023-01-10T10:32:27;6.60;99.90
7842;DHT22;3966;51.052;13.820;2023-01-10T10:35:06;6.60;99.90
7842;DHT22;3966;51.052;13.820;2023-01-10T10:37:46;6.60;99.90
7842;DHT22;3966;51.052;13.820;2023-01-10T10:42:42;6.70;99.90
7842;DHT22;3966;51.052;13.820;2023-01-10T10:45:28;6.70;99.90
7842;DHT22;3966;51.052;13.820;2023-01-10T10:48:06;6.70;99.90
7842;DHT22;3966;51.052;13.820;2023-01-10T10:50:47;6.80;99.90
7842;DHT22;3966;51.052;13.820;2023-01-10T10:53:14;6.80;99.90
7842;DHT22;3966;51.052;13.820;2023-01-10T10:55:40;6.90;99.90
7842;DHT22;3966;51.052;13.820;2023-01-10T10:58:08;7.00;99.90
7842;DHT22;3966;51.052;13.820;2023-01-10T11:00:34;6.80;99.90
7842;DHT22;3966;51.052;13.820;2023-01-10T11:03:09;6.80;99.90
7842;DHT22;3966;51.052;13.820;2023-01-10T11:05:39;6.90;99.90
7842;DHT22;3966;51.052;13.820;2023-01-10T11:08:08;6.90;99.90
7842;DHT22;3966;51.052;13.820;2023-01-10T11:10:38;6.90;99.90
7842;DHT22;3966;51.052;13.820;2023-01-10T11:15:42;7.00;99.90
7842;DHT22;3966;51.052;13.820;2023-01-10T11:18:16;7.00;99.90
7842;DHT22;3966;51.052;13.820;2023-01-10T11:25:49;7.10;99.90
7842;DHT22;3966;51.052;13.820;2023-01-10T11:28:15;7.10;99.90
7842;DHT22;3966;51.052;13.820;2023-01-10T11:30:46;7.10;99.90
7842;DHT22;3966;51.052;13.820;2023-01-10T11:33:26;7.20;99.90
7842;DHT22;3966;51.052;13.820;2023-01-10T11:36:01;7.30;99.90
7842;DHT22;3966;51.052;13.820;2023-01-10T11:38:28;7.30;99.90
7842;DHT22;3966;51.052;13.820;2023-01-10T11:41:02;7.30;99.90
7842;DHT22;3966;51.052;13.820;2023-01-10T11:43:33;7.20;99.90
7842;DHT22;3966;51.052;13.820;2023-01-10T11:46:12;7.20;99.90
7842;DHT22;3966;51.052;13.820;2023-01-10T11:48:43;7.30;99.90
7842;DHT22;3966;51.052;13.820;2023-01-10T11:51:19;7.30;99.90
7842;DHT22;3966;51.052;13.820;2023-01-10T11:53:48;7.40;99.90
7842;DHT22;3966;51.052;13.820;2023-01-10T11:56:41;7.50;99.90
7842;DHT22;3966;51.052;13.820;2023-01-10T11:59:15;7.50;99.90
7842;DHT22;3966;51.052;13.820;2023-01-10T12:01:54;7.40;99.90
7842;DHT22;3966;51.052;13.820;2023-01-10T12:04:23;7.50;99.90
7842;DHT22;3966;51.052;13.820;2023-01-10T12:07:12;7.60;99.90
7842;DHT22;3966;51.052;13.820;2023-01-10T12:09:43;7.50;99.90
7842;DHT22;3966;51.052;13.820;2023-01-10T12:14:45;7.70;99.90
7842;DHT22;3966;51.052;13.820;2023-01-10T12:17:32;7.70;99.90
7842;DHT22;3966;51.052;13.820;2023-01-10T12:20:00;7.70;99.90
7842;DHT22;3966;51.052;13.820;2023-01-10T12:22:35;7.80;99.90
7842;DHT22;3966;51.052;13.820;2023-01-10T12:27:43;7.80;99.90
7842;DHT22;3966;51.052;13.820;2023-01-10T12:30:27;7.70;99.90
7842;DHT22;3966;51.052;13.820;2023-01-10T12:32:54;7.70;99.90
7842;DHT22;3966;51.052;13.820;2023-01-10T12:35:45;7.90;99.90
7842;DHT22;3966;51.052;13.820;2023-01-10T12:41:51;8.00;99.90
7842;DHT22;3966;51.052;13.820;2023-01-10T12:44:43;7.90;99.90
7842;DHT22;3966;51.052;13.820;2023-01-10T12:47:52;7.90;99.90
7842;DHT22;3966;51.052;13.820;2023-01-10T12:50:15;7.90;99.90
7842;DHT22;3966;51.052;13.820;2023-01-10T12:55:15;8.00;99.90
7842;DHT22;3966;51.052;13.820;2023-01-10T12:57:41;8.00;99.90
7842;DHT22;3966;51.052;13.820;2023-01-10T13:02:57;7.90;99.90
7842;DHT22;3966;51.052;13.820;2023-01-10T13:05:26;7.90;99.90
7842;DHT22;3966;51.052;13.820;2023-01-10T13:07:58;7.90;99.90
7842;DHT22;3966;51.052;13.820;2023-01-10T13:10:26;7.80;99.90
7842;DHT22;3966;51.052;13.820;2023-01-10T13:13:15;7.80;99.90
7842;DHT22;3966;51.052;13.820;2023-01-10T13:18:29;7.80;99.90
7842;DHT22;3966;51.052;13.820;2023-01-10T13:21:09;7.80;99.90
7842;DHT22;3966;51.052;13.820;2023-01-10T13:23:47;7.90;99.90
7842;DHT22;3966;51.052;13.820;2023-01-10T13:26:14;7.90;99.90
7842;DHT22;3966;51.052;13.820;2023-01-10T13:28:55;7.80;99.90
7842;DHT22;3966;51.052;13.820;2023-01-10T13:31:31;7.80;99.90
7842;DHT22;3966;51.052;13.820;2023-01-10T13:33:58;7.80;99.90
7842;DHT22;3966;51.052;13.820;2023-01-10T13:36:29;7.80;99.90
7842;DHT22;3966;51.052;13.820;2023-01-10T13:39:00;7.80;99.90
7842;DHT22;3966;51.052;13.820;2023-01-10T14:00:48;7.70;99.90
7842;DHT22;3966;51.052;13.820;2023-01-10T14:03:46;7.70;99.90
7842;DHT22;3966;51.052;13.820;2023-01-10T14:08:57;7.80;99.90
7842;DHT22;3966;51.052;13.820;2023-01-10T14:11:26;7.80;99.90
7842;DHT22;3966;51.052;13.820;2023-01-10T14:14:00;7.80;99.90
7842;DHT22;3966;51.052;13.820;2023-01-10T14:16:43;7.80;99.90
7842;DHT22;3966;51.052;13.820;2023-01-10T14:19:41;7.80;99.90
7842;DHT22;3966;51.052;13.820;2023-01-10T14:24:55;7.90;99.90
7842;DHT22;3966;51.052;13.820;2023-01-10T14:27:23;7.80;99.90
7842;DHT22;3966;51.052;13.820;2023-01-10T14:29:56;7.80;99.90
7842;DHT22;3966;51.052;13.820;2023-01-10T14:32:39;7.70;99.90
7842;DHT22;3966;51.052;13.820;2023-01-10T14:35:18;7.80;99.90
7842;DHT22;3966;51.052;13.820;2023-01-10T14:37:56;7.80;99.90
7842;DHT22;3966;51.052;13.820;2023-01-10T14:40:35;7.70;99.90
7842;DHT22;3966;51.052;13.820;2023-01-10T14:43:08;7.70;99.90
7842;DHT22;3966;51.052;13.820;2023-01-10T14:45:59;7.70;99.90
7842;DHT22;3966;51.052;13.820;2023-01-10T14:48:34;7.70;99.90
7842;DHT22;3966;51.052;13.820;2023-01-10T14:53:31;7.80;99.90
7842;DHT22;3966;51.052;13.820;2023-01-10T14:55:57;7.90;99.90
7842;DHT22;3966;51.052;13.820;2023-01-10T14:58:23;7.80;99.90
7842;DHT22;3966;51.052;13.820;2023-01-10T15:00:50;7.80;99.90
7842;DHT22;3966;51.052;13.820;2023-01-10T15:03:20;7.80;99.90
7842;DHT22;3966;51.052;13.820;2023-01-10T15:05:55;7.80;99.90
7842;DHT22;3966;51.052;13.820;2023-01-10T15:08:28;7.80;99.90
7842;DHT22;3966;51.052;13.820;2023-01-10T15:11:02;7.70;99.90
7842;DHT22;3966;51.052;13.820;2023-01-10T15:13:30;7.70;99.90
7842;DHT22;3966;51.052;13.820;2023-01-10T15:15:58;7.70;99.90
7842;DHT22;3966;51.052;13.820;2023-01-10T15:18:35;7.80;99.90
7842;DHT22;3966;51.052;13.820;2023-01-10T15:21:02;7.80;99.90
7842;DHT22;3966;51.052;13.820;2023-01-10T15:23:36;7.80;99.90
7842;DHT22;3966;51.052;13.820;2023-01-10T15:26:05;7.80;99.90
7842;DHT22;3966;51.052;13.820;2023-01-10T15:28:32;7.70;99.90
7842;DHT22;3966;51.052;13.820;2023-01-10T15:31:01;7.70;99.90
7842;DHT22;3966;51.052;13.820;2023-01-10T15:33:29;7.70;99.90
7842;DHT22;3966;51.052;13.820;2023-01-10T15:36:03;7.60;99.90
7842;DHT22;3966;51.052;13.820;2023-01-10T15:38:29;7.70;99.90
7842;DHT22;3966;51.052;13.820;2023-01-10T15:41:04;7.70;99.90
7842;DHT22;3966;51.052;13.820;2023-01-10T15:43:33;7.70;99.90
7842;DHT22;3966;51.052;13.820;2023-01-10T15:46:01;7.80;99.90
7842;DHT22;3966;51.052;13.820;2023-01-10T15:48:35;7.80;99.90
7842;DHT22;3966;51.052;13.820;2023-01-10T15:51:14;7.80;99.90
7842;DHT22;3966;51.052;13.820;2023-01-10T15:54:08;7.90;99.90
7842;DHT22;3966;51.052;13.820;2023-01-10T15:56:55;7.70;99.90
7842;DHT22;3966;51.052;13.820;2023-01-10T15:59:29;7.70;99.90
7842;DHT22;3966;51.052;13.820;2023-01-10T16:04:46;7.70;99.90
7842;DHT22;3966;51.052;13.820;2023-01-10T16:07:33;7.70;99.90
7842;DHT22;3966;51.052;13.820;2023-01-10T16:10:13;7.70;99.90
7842;DHT22;3966;51.052;13.820;2023-01-10T16:12:41;7.70;99.90
7842;DHT22;3966;51.052;13.820;2023-01-10T16:15:26;7.70;99.90
7842;DHT22;3966;51.052;13.820;2023-01-10T16:17:53;7.80;99.90
7842;DHT22;3966;51.052;13.820;2023-01-10T16:20:25;7.80;99.90
7842;DHT22;3966;51.052;13.820;2023-01-10T16:22:52;7.80;99.90
7842;DHT22;3966;51.052;13.820;2023-01-10T16:25:27;7.80;99.90
7842;DHT22;3966;51.052;13.820;2023-01-10T16:27:56;7.80;99.90
7842;DHT22;3966;51.052;13.820;2023-01-10T16:30:27;7.80;99.90
7842;DHT22;3966;51.052;13.820;2023-01-10T16:32:53;7.70;99.90
7842;DHT22;3966;51.052;13.820;2023-01-10T16:35:19;7.60;99.90
7842;DHT22;3966;51.052;13.820;2023-01-10T16:37:46;7.60;99.90
7842;DHT22;3966;51.052;13.820;2023-01-10T16:40:21;7.60;99.90
7842;DHT22;3966;51.052;13.820;2023-01-10T16:42:47;7.60;99.90
7842;DHT22;3966;51.052;13.820;2023-01-10T16:45:31;7.60;99.90
7842;DHT22;3966;51.052;13.820;2023-01-10T16:47:57;7.60;99.90
7842;DHT22;3966;51.052;13.820;2023-01-10T16:50:22;7.50;99.90
7842;DHT22;3966;51.052;13.820;2023-01-10T16:52:48;7.50;99.90
7842;DHT22;3966;51.052;13.820;2023-01-10T16:55:16;7.50;99.90
7842;DHT22;3966;51.052;13.820;2023-01-10T16:57:42;7.50;99.90
7842;DHT22;3966;51.052;13.820;2023-01-10T17:00:12;7.50;99.90
7842;DHT22;3966;51.052;13.820;2023-01-10T17:02:39;7.50;99.90
7842;DHT22;3966;51.052;13.820;2023-01-10T17:05:06;7.40;99.90
7842;DHT22;3966;51.052;13.820;2023-01-10T17:07:31;7.40;99.90
7842;DHT22;3966;51.052;13.820;2023-01-10T17:09:57;7.40;99.90
7842;DHT22;3966;51.052;13.820;2023-01-10T17:12:28;7.40;99.90
7842;DHT22;3966;51.052;13.820;2023-01-10T17:14:55;7.40;99.90
7842;DHT22;3966;51.052;13.820;2023-01-10T17:17:20;7.40;99.90
7842;DHT22;3966;51.052;13.820;2023-01-10T17:19:46;7.50;99.90
7842;DHT22;3966;51.052;13.820;2023-01-10T17:22:12;7.50;99.90
7842;DHT22;3966;51.052;13.820;2023-01-10T17:24:38;7.50;99.90
7842;DHT22;3966;51.052;13.820;2023-01-10T17:27:03;7.50;99.90
7842;DHT22;3966;51.052;13.820;2023-01-10T17:29:30;7.50;99.90
7842;DHT22;3966;51.052;13.820;2023-01-10T17:31:57;7.40;99.90
7842;DHT22;3966;51.052;13.820;2023-01-10T17:34:22;7.40;99.90
7842;DHT22;3966;51.052;13.820;2023-01-10T17:36:48;7.30;99.90
7842;DHT22;3966;51.052;13.820;2023-01-10T17:39:14;7.30;99.90
7842;DHT22;3966;51.052;13.820;2023-01-10T17:41:39;7.40;99.90
7842;DHT22;3966;51.052;13.820;2023-01-10T17:44:05;7.30;99.90
7842;DHT22;3966;51.052;13.820;2023-01-10T17:46:31;7.30;99.90
7842;DHT22;3966;51.052;13.820;2023-01-10T17:48:56;7.30;99.90
7842;DHT22;3966;51.052;13.820;2023-01-10T17:51:22;7.40;99.90
7842;DHT22;3966;51.052;13.820;2023-01-10T17:53:49;7.40;99.90
7842;DHT22;3966;51.052;13.820;2023-01-10T17:56:15;7.50;99.90
7842;DHT22;3966;51.052;13.820;2023-01-10T17:58:42;7.50;99.90
7842;DHT22;3966;51.052;13.820;2023-01-10T18:01:19;7.40;99.90
7842;DHT22;3966;51.052;13.820;2023-01-10T18:03:46;7.30;99.90
7842;DHT22;3966;51.052;13.820;2023-01-10T18:06:11;7.30;99.90
7842;DHT22;3966;51.052;13.820;2023-01-10T18:08:37;7.20;99.90
7842;DHT22;3966;51.052;13.820;2023-01-10T18:11:03;7.10;99.90
7842;DHT22;3966;51.052;13.820;2023-01-10T18:13:29;7.20;99.90
7842;DHT22;3966;51.052;13.820;2023-01-10T18:15:58;7.20;99.90